| time (UTC) | temp C | wind direction | speed KPH | gust KPH | rain 1hr cm | rain 24hr cm | rain mn cm | humidity % | barometer mb |
| 20260504175758 | 18 | 226 | 4.8 | 25.7 | 0.00 | 0.00 | 0.00 | 39 | 1005.5 |
| 20260504175258 | 18 | 255 | 9.7 | 25.7 | 0.00 | 0.00 | 0.00 | 39 | 1005.5 |
| 20260504174758 | 18 | 340 | 3.2 | 8.0 | 0.00 | 0.00 | 0.00 | 40 | 1005.5 |
| 20260504174258 | 18 | 267 | 9.7 | 27.4 | 0.00 | 0.00 | 0.00 | 39 | 1005.6 |
| 20260504173758 | 18 | 292 | 1.6 | 27.4 | 0.00 | 0.00 | 0.00 | 39 | 1005.6 |
| 20260504173258 | 18 | 199 | 3.2 | 24.1 | 0.00 | 0.00 | 0.00 | 40 | 1005.6 |
| 20260504172758 | 17 | 301 | 3.2 | 25.7 | 0.00 | 0.00 | 0.00 | 40 | 1005.8 |
| 20260504172258 | 18 | 167 | 6.4 | 25.7 | 0.00 | 0.00 | 0.00 | 39 | 1005.8 |
| 20260504171758 | 18 | 212 | 9.7 | 17.7 | 0.00 | 0.00 | 0.00 | 40 | 1005.8 |
| 20260504171258 | 17 | 255 | 16.1 | 20.9 | 0.00 | 0.00 | 0.00 | 40 | 1006.1 |
| 20260504170758 | 17 | 193 | 3.2 | 20.9 | 0.00 | 0.00 | 0.00 | 40 | 1006.1 |
| 20260504170258 | 17 | 200 | 4.8 | 11.3 | 0.00 | 0.00 | 0.00 | 41 | 1006.1 |
| 20260504160259 | 17 | 285 | 8.0 | 17.7 | 0.00 | 0.00 | 0.00 | 39 | 1006.7 |
| 20260504150758 | 15 | 214 | 9.7 | 20.9 | 0.00 | 0.00 | 0.00 | 42 | 1007.3 |
| 20260504150258 | 15 | 243 | 9.7 | 17.7 | 0.00 | 0.00 | 0.00 | 44 | 1007.3 |
| 20260504141258 | 13 | 141 | 4.8 | 17.7 | 0.00 | 0.00 | 0.00 | 52 | 1007.5 |
| 20260504140758 | 13 | 235 | 3.2 | 17.7 | 0.00 | 0.00 | 0.00 | 51 | 1007.5 |
| 20260504140258 | 13 | 184 | 3.2 | 11.3 | 0.00 | 0.00 | 0.00 | 52 | 1007.5 |
| 20260504130758 | 11 | 282 | 1.6 | 14.5 | 0.00 | 0.00 | 0.00 | 54 | 1008.0 |
| 20260504130258 | 11 | 259 | 1.6 | 9.7 | 0.00 | 0.00 | 0.00 | 53 | 1008.0 |
| 20260504120258 | 8 | 148 | 6.4 | 14.5 | 0.00 | 0.00 | 0.00 | 56 | 1008.2 |
| 20260504110258 | 7 | 174 | 4.8 | 11.3 | 0.00 | 0.00 | 0.00 | 57 | 1008.2 |
| 20260504100258 | 7 | 206 | 3.2 | 6.4 | 0.00 | 0.00 | 0.00 | 54 | 1008.2 |
| 20260504081758 | 8 | 270 | 1.6 | 6.4 | 0.00 | 0.00 | 0.00 | 52 | 1008.2 |
| 20260504081258 | 8 | 257 | 3.2 | 14.5 | 0.00 | 0.00 | 0.00 | 52 | 1008.3 |
| 20260504080758 | 8 | 214 | 4.8 | 14.5 | 0.00 | 0.00 | 0.00 | 51 | 1008.3 |
| 20260504080258 | 8 | 251 | 4.8 | 14.5 | 0.00 | 0.00 | 0.00 | 51 | 1008.3 |
| 20260504070258 | 10 | 245 | 4.8 | 6.4 | 0.00 | 0.00 | 0.00 | 47 | 1008.2 |
| 20260504050258 | 10 | 167 | 1.6 | 19.3 | 0.00 | 0.00 | 0.00 | 46 | 1008.3 |
| 20260504045758 | 10 | 230 | 1.6 | 17.7 | 0.00 | 0.00 | 0.00 | 46 | 1008.3 |
| 20260504045258 | 10 | 248 | 11.3 | 17.7 | 0.00 | 0.00 | 0.00 | 46 | 1008.3 |
| 20260504044758 | 9 | 247 | 4.8 | 6.4 | 0.00 | 0.00 | 0.00 | 47 | 1008.3 |
| 20260504044258 | 9 | 255 | 6.4 | 17.7 | 0.00 | 0.00 | 0.00 | 47 | 1008.2 |
| 20260504043758 | 9 | 277 | 6.4 | 16.1 | 0.00 | 0.00 | 0.00 | 47 | 1008.2 |
| 20260504043258 | 9 | 265 | 4.8 | 6.4 | 0.00 | 0.00 | 0.00 | 47 | 1008.2 |
| 20260504042758 | 9 | 169 | 1.6 | 11.3 | 0.00 | 0.00 | 0.00 | 47 | 1008.0 |
| 20260504042258 | 9 | 236 | 4.8 | 9.7 | 0.00 | 0.00 | 0.00 | 47 | 1008.0 |
| 20260504041758 | 9 | 234 | 4.8 | 9.7 | 0.00 | 0.00 | 0.00 | 47 | 1008.0 |
| 20260504041258 | 9 | 254 | 3.2 | 14.5 | 0.00 | 0.00 | 0.00 | 47 | 1007.9 |
| 20260504040758 | 10 | 0 | 0.0 | 9.7 | 0.00 | 0.00 | 0.00 | 47 | 1007.9 |
| 20260504040258 | 10 | 220 | 1.6 | 9.7 | 0.00 | 0.00 | 0.00 | 46 | 1007.9 |
| 20260504035758 | 10 | 255 | 3.2 | 16.1 | 0.00 | 0.00 | 0.00 | 46 | 1007.8 |
| 20260504035258 | 10 | 251 | 9.7 | 16.1 | 0.00 | 0.00 | 0.00 | 45 | 1007.8 |
| 20260504034758 | 10 | 288 | 3.2 | 14.5 | 0.00 | 0.00 | 0.00 | 45 | 1007.8 |
| 20260504034258 | 10 | 254 | 9.7 | 17.7 | 0.00 | 0.00 | 0.00 | 45 | 1007.8 |
| 20260504033758 | 10 | 269 | 6.4 | 17.7 | 0.00 | 0.00 | 0.00 | 45 | 1007.8 |
| 20260504033258 | 10 | 279 | 8.0 | 8.0 | 0.00 | 0.00 | 0.00 | 45 | 1007.8 |
| 20260504032758 | 10 | 272 | 3.2 | 17.7 | 0.00 | 0.00 | 0.00 | 45 | 1007.8 |
| 20260504032258 | 10 | 267 | 1.6 | 9.7 | 0.00 | 0.00 | 0.00 | 45 | 1007.8 |
| 20260504031758 | 10 | 199 | 3.2 | 9.7 | 0.00 | 0.00 | 0.00 | 44 | 1007.8 |
| 20260504031258 | 10 | 239 | 1.6 | 16.1 | 0.00 | 0.00 | 0.00 | 44 | 1007.7 |
| 20260504030758 | 10 | 254 | 4.8 | 16.1 | 0.00 | 0.00 | 0.00 | 44 | 1007.7 |
| 20260504030258 | 10 | 328 | 3.2 | 9.7 | 0.00 | 0.00 | 0.00 | 43 | 1007.7 |
| 20260504025758 | 11 | 285 | 14.5 | 17.7 | 0.00 | 0.00 | 0.00 | 43 | 1007.7 |
| 20260504025258 | 11 | 237 | 1.6 | 14.5 | 0.00 | 0.00 | 0.00 | 43 | 1007.7 |
| 20260504024758 | 11 | 283 | 4.8 | 9.7 | 0.00 | 0.00 | 0.00 | 43 | 1007.7 |
| 20260504024258 | 11 | 278 | 4.8 | 17.7 | 0.00 | 0.00 | 0.00 | 43 | 1007.8 |
| 20260504023758 | 11 | 255 | 8.0 | 14.5 | 0.00 | 0.00 | 0.00 | 43 | 1007.8 |
| 20260504023258 | 10 | 276 | 4.8 | 14.5 | 0.00 | 0.00 | 0.00 | 43 | 1007.8 |
| 20260504022758 | 10 | 268 | 6.4 | 19.3 | 0.00 | 0.00 | 0.00 | 43 | 1007.7 |
| 20260504022258 | 11 | 288 | 3.2 | 19.3 | 0.00 | 0.00 | 0.00 | 43 | 1007.7 |
| 20260504021758 | 11 | 236 | 6.4 | 16.1 | 0.00 | 0.00 | 0.00 | 44 | 1007.7 |
| 20260504021258 | 11 | 264 | 9.7 | 16.1 | 0.00 | 0.00 | 0.00 | 44 | 1007.7 |
| 20260504020758 | 10 | 245 | 6.4 | 16.1 | 0.00 | 0.00 | 0.00 | 44 | 1007.7 |
| 20260504020258 | 10 | 251 | 8.0 | 16.1 | 0.00 | 0.00 | 0.00 | 44 | 1007.7 |
| 20260504015758 | 10 | 260 | 4.8 | 11.3 | 0.00 | 0.00 | 0.00 | 44 | 1007.6 |
| 20260504015258 | 10 | 265 | 3.2 | 11.3 | 0.00 | 0.00 | 0.00 | 44 | 1007.6 |
| 20260504014758 | 11 | 270 | 4.8 | 8.0 | 0.00 | 0.00 | 0.00 | 44 | 1007.6 |
| 20260504014258 | 11 | 268 | 4.8 | 19.3 | 0.00 | 0.00 | 0.00 | 43 | 1007.5 |
| 20260504013758 | 11 | 255 | 3.2 | 11.3 | 0.00 | 0.00 | 0.00 | 43 | 1007.5 |
| 20260504013258 | 11 | 232 | 8.0 | 8.0 | 0.00 | 0.00 | 0.00 | 44 | 1007.5 |
| 20260504012758 | 11 | 273 | 4.8 | 11.3 | 0.00 | 0.00 | 0.00 | 43 | 1007.3 |
| 20260504012258 | 11 | 264 | 4.8 | 8.0 | 0.00 | 0.00 | 0.00 | 43 | 1007.3 |
| 20260504011758 | 11 | 297 | 3.2 | 8.0 | 0.00 | 0.00 | 0.00 | 42 | 1007.3 |
| 20260504011258 | 11 | 274 | 6.4 | 17.7 | 0.00 | 0.00 | 0.00 | 42 | 1007.4 |
| 20260504010758 | 11 | 278 | 4.8 | 17.7 | 0.00 | 0.00 | 0.00 | 42 | 1007.4 |
| 20260504010258 | 11 | 261 | 8.0 | 17.7 | 0.00 | 0.00 | 0.00 | 42 | 1007.4 |
| 20260504005758 | 11 | 264 | 8.0 | 14.5 | 0.00 | 0.00 | 0.00 | 41 | 1007.2 |
| 20260504005258 | 11 | 250 | 9.7 | 14.5 | 0.00 | 0.00 | 0.00 | 42 | 1007.2 |
| 20260504004758 | 11 | 289 | 1.6 | 14.5 | 0.00 | 0.00 | 0.00 | 41 | 1007.2 |
| 20260504004258 | 11 | 248 | 4.8 | 11.3 | 0.00 | 0.00 | 0.00 | 41 | 1006.9 |
| 20260504003758 | 11 | 276 | 1.6 | 11.3 | 0.00 | 0.00 | 0.00 | 41 | 1006.9 |
| 20260504003258 | 11 | 242 | 6.4 | 11.3 | 0.00 | 0.00 | 0.00 | 40 | 1006.9 |
| 20260504002758 | 11 | 298 | 1.6 | 14.5 | 0.00 | 0.00 | 0.00 | 40 | 1006.8 |
| 20260504002258 | 11 | 276 | 8.0 | 14.5 | 0.00 | 0.00 | 0.00 | 40 | 1006.8 |
| 20260504001758 | 11 | 252 | 4.8 | 9.7 | 0.00 | 0.00 | 0.00 | 40 | 1006.8 |
| 20260504001258 | 11 | 326 | 4.8 | 19.3 | 0.00 | 0.00 | 0.00 | 40 | 1006.7 |
| 20260504000758 | 12 | 309 | 4.8 | 19.3 | 0.00 | 0.00 | 0.00 | 40 | 1006.7 |
| 20260504000258 | 12 | 336 | 4.8 | 19.3 | 0.00 | 0.00 | 0.00 | 39 | 1006.7 |
| 20260503235758 | 12 | 283 | 4.8 | 20.9 | 0.00 | 0.00 | 0.00 | 39 | 1006.4 |
| 20260503235258 | 12 | 307 | 3.2 | 20.9 | 0.00 | 0.00 | 0.00 | 39 | 1006.4 |
| 20260503234758 | 12 | 311 | 9.7 | 14.5 | 0.00 | 0.00 | 0.00 | 38 | 1006.4 |
| 20260503234258 | 12 | 276 | 3.2 | 19.3 | 0.00 | 0.00 | 0.00 | 37 | 1006.3 |
| 20260503233758 | 12 | 282 | 8.0 | 12.9 | 0.00 | 0.00 | 0.00 | 37 | 1006.3 |
| 20260503233258 | 12 | 331 | 6.4 | 11.3 | 0.00 | 0.00 | 0.00 | 37 | 1006.3 |
| 20260503232758 | 12 | 297 | 3.2 | 22.5 | 0.00 | 0.00 | 0.00 | 37 | 1006.3 |
| 20260503232258 | 13 | 264 | 16.1 | 22.5 | 0.00 | 0.00 | 0.00 | 37 | 1006.3 |
| 20260503231758 | 13 | 281 | 19.3 | 19.3 | 0.00 | 0.00 | 0.00 | 37 | 1006.3 |
| 20260503231258 | 13 | 272 | 6.4 | 22.5 | 0.00 | 0.00 | 0.00 | 36 | 1006.3 |
| 20260503230758 | 13 | 300 | 9.7 | 14.5 | 0.00 | 0.00 | 0.00 | 37 | 1006.3 |
| 20260503230258 | 13 | 333 | 1.6 | 9.7 | 0.00 | 0.00 | 0.00 | 37 | 1006.3 |
| 20260503225758 | 13 | 250 | 3.2 | 17.7 | 0.00 | 0.00 | 0.00 | 36 | 1006.2 |
| 20260503225258 | 13 | 249 | 3.2 | 17.7 | 0.00 | 0.00 | 0.00 | 36 | 1006.2 |
| 20260503224758 | 13 | 276 | 6.4 | 11.3 | 0.00 | 0.00 | 0.00 | 36 | 1006.2 |
| 20260503224258 | 13 | 269 | 9.7 | 22.5 | 0.00 | 0.00 | 0.00 | 36 | 1006.0 |
| 20260503223758 | 13 | 300 | 16.1 | 22.5 | 0.00 | 0.00 | 0.00 | 35 | 1006.0 |
| 20260503223258 | 13 | 290 | 4.8 | 22.5 | 0.00 | 0.00 | 0.00 | 33 | 1006.0 |
| 20260503222758 | 13 | 271 | 6.4 | 22.5 | 0.00 | 0.00 | 0.00 | 34 | 1006.1 |
| 20260503222258 | 13 | 288 | 12.9 | 20.9 | 0.00 | 0.00 | 0.00 | 34 | 1006.1 |
| 20260503221758 | 13 | 286 | 19.3 | 19.3 | 0.00 | 0.00 | 0.00 | 35 | 1006.1 |
| 20260503221258 | 13 | 296 | 4.8 | 24.1 | 0.00 | 0.00 | 0.00 | 35 | 1006.0 |
| 20260503220758 | 13 | 321 | 4.8 | 19.3 | 0.00 | 0.00 | 0.00 | 34 | 1006.0 |
| 20260503220258 | 13 | 289 | 8.0 | 19.3 | 0.00 | 0.00 | 0.00 | 33 | 1006.0 |
| 20260503215758 | 13 | 288 | 12.9 | 30.6 | 0.00 | 0.00 | 0.00 | 33 | 1005.9 |
| 20260503215258 | 13 | 283 | 12.9 | 30.6 | 0.00 | 0.00 | 0.00 | 32 | 1005.9 |
| 20260503214758 | 13 | 44 | 9.7 | 22.5 | 0.00 | 0.00 | 0.00 | 32 | 1005.9 |
| 20260503214258 | 13 | 309 | 19.3 | 29.0 | 0.00 | 0.00 | 0.00 | 32 | 1005.7 |
| 20260503213758 | 13 | 293 | 6.4 | 27.4 | 0.00 | 0.00 | 0.00 | 32 | 1005.7 |
| 20260503213258 | 13 | 340 | 9.7 | 24.1 | 0.00 | 0.00 | 0.00 | 31 | 1005.7 |
| 20260503212758 | 14 | 296 | 11.3 | 24.1 | 0.00 | 0.00 | 0.00 | 32 | 1005.7 |
| 20260503212258 | 14 | 340 | 4.8 | 24.1 | 0.00 | 0.00 | 0.00 | 31 | 1005.7 |
| 20260503211758 | 13 | 345 | 4.8 | 17.7 | 0.00 | 0.00 | 0.00 | 33 | 1005.7 |
| 20260503211258 | 13 | 359 | 14.5 | 25.7 | 0.00 | 0.00 | 0.00 | 32 | 1005.8 |
| 20260503210758 | 13 | 349 | 6.4 | 25.7 | 0.00 | 0.00 | 0.00 | 32 | 1005.8 |
| 20260503210258 | 13 | 294 | 9.7 | 22.5 | 0.00 | 0.00 | 0.00 | 32 | 1005.8 |
| 20260503205758 | 13 | 289 | 4.8 | 30.6 | 0.00 | 0.00 | 0.00 | 32 | 1005.9 |
| 20260503205258 | 13 | 323 | 9.7 | 29.0 | 0.00 | 0.00 | 0.00 | 33 | 1005.9 |
| 20260503204758 | 13 | 306 | 17.7 | 29.0 | 0.00 | 0.00 | 0.00 | 32 | 1005.9 |
| 20260503204258 | 13 | 359 | 9.7 | 35.4 | 0.00 | 0.00 | 0.00 | 32 | 1006.0 |
| 20260503203758 | 13 | 319 | 16.1 | 32.2 | 0.00 | 0.00 | 0.00 | 32 | 1006.0 |
| 20260503203258 | 13 | 259 | 16.1 | 22.5 | 0.00 | 0.00 | 0.00 | 33 | 1006.0 |
| 20260503202758 | 13 | 316 | 6.4 | 24.1 | 0.00 | 0.00 | 0.00 | 33 | 1006.1 |
| 20260503202258 | 13 | 287 | 3.2 | 24.1 | 0.00 | 0.00 | 0.00 | 34 | 1006.1 |
| 20260503201758 | 13 | 334 | 16.1 | 24.1 | 0.00 | 0.00 | 0.00 | 33 | 1006.1 |
| 20260503201258 | 12 | 283 | 17.7 | 29.0 | 0.00 | 0.00 | 0.00 | 33 | 1006.3 |
| 20260503200758 | 12 | 359 | 8.0 | 24.1 | 0.00 | 0.00 | 0.00 | 34 | 1006.3 |
| 20260503200258 | 12 | 359 | 8.0 | 24.1 | 0.00 | 0.00 | 0.00 | 33 | 1006.3 |
| 20260503195758 | 12 | 326 | 9.7 | 37.0 | 0.00 | 0.00 | 0.00 | 33 | 1006.4 |
| 20260503195258 | 12 | 233 | 9.7 | 30.6 | 0.00 | 0.00 | 0.00 | 34 | 1006.4 |
| 20260503194758 | 12 | 325 | 9.7 | 30.6 | 0.00 | 0.00 | 0.00 | 35 | 1006.4 |
| 20260503194258 | 12 | 335 | 8.0 | 32.2 | 0.00 | 0.00 | 0.00 | 35 | 1006.6 |
| 20260503193758 | 12 | 359 | 17.7 | 32.2 | 0.00 | 0.00 | 0.00 | 36 | 1006.6 |
| 20260503193258 | 12 | 280 | 17.7 | 29.0 | 0.00 | 0.00 | 0.00 | 35 | 1006.6 |
| 20260503192758 | 12 | 351 | 8.0 | 37.0 | 0.00 | 0.00 | 0.00 | 36 | 1006.9 |
| 20260503192258 | 12 | 267 | 11.3 | 37.0 | 0.00 | 0.00 | 0.00 | 34 | 1006.9 |
| 20260503191758 | 12 | 359 | 11.3 | 37.0 | 0.00 | 0.00 | 0.00 | 35 | 1006.9 |
| 20260503191258 | 12 | 298 | 8.0 | 30.6 | 0.00 | 0.00 | 0.00 | 36 | 1006.8 |
| 20260503190758 | 12 | 310 | 14.5 | 30.6 | 0.00 | 0.00 | 0.00 | 37 | 1006.8 |
| 20260503190258 | 12 | 274 | 16.1 | 19.3 | 0.00 | 0.00 | 0.00 | 36 | 1006.8 |
| 20260503185759 | 11 | 319 | 9.7 | 32.2 | 0.00 | 0.00 | 0.00 | 35 | 1006.9 |
| 20260503185258 | 11 | 255 | 14.5 | 32.2 | 0.00 | 0.00 | 0.00 | 37 | 1006.9 |
| 20260503184758 | 11 | 345 | 6.4 | 29.0 | 0.00 | 0.00 | 0.00 | 36 | 1006.9 |
| 20260503184258 | 11 | 264 | 8.0 | 29.0 | 0.00 | 0.00 | 0.00 | 36 | 1006.9 |
| 20260503183758 | 11 | 277 | 17.7 | 29.0 | 0.00 | 0.00 | 0.00 | 35 | 1006.9 |
| 20260503183258 | 12 | 303 | 8.0 | 22.5 | 0.00 | 0.00 | 0.00 | 39 | 1006.9 |
| 20260503182758 | 11 | 276 | 16.1 | 20.9 | 0.00 | 0.00 | 0.00 | 36 | 1007.0 |
| 20260503182258 | 11 | 354 | 4.8 | 19.3 | 0.00 | 0.00 | 0.00 | 40 | 1007.0 |
| 20260503181758 | 11 | 271 | 17.7 | 19.3 | 0.00 | 0.00 | 0.00 | 37 | 1007.0 |
| 20260503181258 | 11 | 294 | 20.9 | 35.4 | 0.00 | 0.00 | 0.00 | 36 | 1007.0 |
| 20260503180758 | 11 | 316 | 16.1 | 35.4 | 0.00 | 0.00 | 0.00 | 37 | 1007.0 |
| 20260503180258 | 11 | 348 | 8.0 | 20.9 | 0.00 | 0.00 | 0.00 | 37 | 1007.0 |